sensor_id;sensor_type;location;lat;lon;timestamp;P1;durP1;ratioP1;P2;durP2;ratioP2
23338;SDS011;11841;49.368;20.962;2022-09-09T00:03:47;7.50;;;5.43;;
23338;SDS011;11841;49.368;20.962;2022-09-09T00:06:25;10.52;;;5.30;;
23338;SDS011;11841;49.368;20.962;2022-09-09T00:11:43;11.65;;;5.97;;
23338;SDS011;11841;49.368;20.962;2022-09-09T00:17:36;9.95;;;5.05;;
23338;SDS011;11841;49.368;20.962;2022-09-09T00:20:16;8.82;;;6.28;;
23338;SDS011;11841;49.368;20.962;2022-09-09T00:22:47;8.50;;;5.53;;
23338;SDS011;11841;49.368;20.962;2022-09-09T00:25:23;6.65;;;4.85;;
23338;SDS011;11841;49.368;20.962;2022-09-09T00:27:57;8.18;;;4.88;;
23338;SDS011;11841;49.368;20.962;2022-09-09T00:30:25;7.78;;;4.80;;
23338;SDS011;11841;49.368;20.962;2022-09-09T00:32:59;8.65;;;4.97;;
23338;SDS011;11841;49.368;20.962;2022-09-09T00:35:34;7.35;;;4.55;;
23338;SDS011;11841;49.368;20.962;2022-09-09T00:38:15;5.70;;;3.83;;
23338;SDS011;11841;49.368;20.962;2022-09-09T00:40:49;4.63;;;3.95;;
23338;SDS011;11841;49.368;20.962;2022-09-09T00:43:28;9.70;;;4.75;;
23338;SDS011;11841;49.368;20.962;2022-09-09T00:46:05;5.30;;;4.07;;
23338;SDS011;11841;49.368;20.962;2022-09-09T00:51:51;9.13;;;4.07;;
23338;SDS011;11841;49.368;20.962;2022-09-09T00:54:45;6.18;;;4.55;;
23338;SDS011;11841;49.368;20.962;2022-09-09T00:57:52;6.55;;;4.47;;
23338;SDS011;11841;49.368;20.962;2022-09-09T01:03:02;5.50;;;4.38;;
23338;SDS011;11841;49.368;20.962;2022-09-09T01:11:03;7.22;;;5.57;;
23338;SDS011;11841;49.368;20.962;2022-09-09T01:13:30;8.77;;;5.18;;
23338;SDS011;11841;49.368;20.962;2022-09-09T01:16:01;6.03;;;4.82;;
23338;SDS011;11841;49.368;20.962;2022-09-09T01:18:43;6.55;;;5.35;;
23338;SDS011;11841;49.368;20.962;2022-09-09T01:21:16;6.90;;;5.60;;
23338;SDS011;11841;49.368;20.962;2022-09-09T01:26:45;5.97;;;4.47;;
23338;SDS011;11841;49.368;20.962;2022-09-09T01:29:15;7.18;;;5.00;;
23338;SDS011;11841;49.368;20.962;2022-09-09T01:31:52;9.70;;;5.05;;
23338;SDS011;11841;49.368;20.962;2022-09-09T01:34:19;8.27;;;5.25;;
23338;SDS011;11841;49.368;20.962;2022-09-09T01:36:48;8.05;;;5.38;;
23338;SDS011;11841;49.368;20.962;2022-09-09T01:39:20;9.75;;;4.70;;
23338;SDS011;11841;49.368;20.962;2022-09-09T01:41:47;6.90;;;5.38;;
23338;SDS011;11841;49.368;20.962;2022-09-09T01:44:14;8.07;;;4.97;;
23338;SDS011;11841;49.368;20.962;2022-09-09T01:46:41;10.20;;;5.63;;
23338;SDS011;11841;49.368;20.962;2022-09-09T01:49:07;8.00;;;6.03;;
23338;SDS011;11841;49.368;20.962;2022-09-09T01:51:35;7.13;;;5.82;;
23338;SDS011;11841;49.368;20.962;2022-09-09T02:04:38;5.82;;;4.85;;
23338;SDS011;11841;49.368;20.962;2022-09-09T02:07:50;7.75;;;4.75;;
23338;SDS011;11841;49.368;20.962;2022-09-09T02:12:39;8.77;;;5.20;;
23338;SDS011;11841;49.368;20.962;2022-09-09T02:15:13;6.07;;;5.22;;
23338;SDS011;11841;49.368;20.962;2022-09-09T02:18:01;6.05;;;5.45;;
23338;SDS011;11841;49.368;20.962;2022-09-09T02:20:35;6.78;;;4.68;;
23338;SDS011;11841;49.368;20.962;2022-09-09T02:23:04;5.90;;;4.10;;
23338;SDS011;11841;49.368;20.962;2022-09-09T02:25:34;5.75;;;3.78;;
23338;SDS011;11841;49.368;20.962;2022-09-09T02:28:06;4.60;;;4.15;;
23338;SDS011;11841;49.368;20.962;2022-09-09T02:30:36;5.93;;;4.15;;
23338;SDS011;11841;49.368;20.962;2022-09-09T02:33:06;5.35;;;4.47;;
23338;SDS011;11841;49.368;20.962;2022-09-09T02:35:36;6.68;;;3.80;;
23338;SDS011;11841;49.368;20.962;2022-09-09T02:38:08;5.13;;;4.25;;
23338;SDS011;11841;49.368;20.962;2022-09-09T02:40:39;8.48;;;5.03;;
23338;SDS011;11841;49.368;20.962;2022-09-09T02:43:05;7.18;;;4.30;;
23338;SDS011;11841;49.368;20.962;2022-09-09T02:45:41;6.63;;;5.18;;
23338;SDS011;11841;49.368;20.962;2022-09-09T02:48:20;9.88;;;6.43;;
23338;SDS011;11841;49.368;20.962;2022-09-09T02:50:59;8.60;;;5.87;;
23338;SDS011;11841;49.368;20.962;2022-09-09T02:53:43;8.65;;;5.95;;
23338;SDS011;11841;49.368;20.962;2022-09-09T02:56:17;10.57;;;6.55;;
23338;SDS011;11841;49.368;20.962;2022-09-09T02:58:48;6.45;;;5.25;;
23338;SDS011;11841;49.368;20.962;2022-09-09T03:01:15;7.45;;;5.75;;
23338;SDS011;11841;49.368;20.962;2022-09-09T03:03:42;9.45;;;7.18;;
23338;SDS011;11841;49.368;20.962;2022-09-09T03:06:10;8.57;;;6.47;;
23338;SDS011;11841;49.368;20.962;2022-09-09T03:08:38;11.20;;;6.07;;
23338;SDS011;11841;49.368;20.962;2022-09-09T03:11:04;8.93;;;5.65;;
23338;SDS011;11841;49.368;20.962;2022-09-09T03:13:31;9.18;;;4.97;;
23338;SDS011;11841;49.368;20.962;2022-09-09T03:15:57;4.10;;;3.38;;
23338;SDS011;11841;49.368;20.962;2022-09-09T03:18:25;4.43;;;3.70;;
23338;SDS011;11841;49.368;20.962;2022-09-09T03:20:51;4.07;;;3.20;;
23338;SDS011;11841;49.368;20.962;2022-09-09T03:23:20;4.05;;;2.88;;
23338;SDS011;11841;49.368;20.962;2022-09-09T03:25:48;3.60;;;3.08;;
23338;SDS011;11841;49.368;20.962;2022-09-09T03:28:18;4.75;;;3.55;;
23338;SDS011;11841;49.368;20.962;2022-09-09T03:30:45;4.05;;;2.88;;
23338;SDS011;11841;49.368;20.962;2022-09-09T03:33:11;7.60;;;2.60;;
23338;SDS011;11841;49.368;20.962;2022-09-09T03:35:38;4.70;;;2.63;;
23338;SDS011;11841;49.368;20.962;2022-09-09T03:38:05;4.05;;;2.50;;
23338;SDS011;11841;49.368;20.962;2022-09-09T03:40:32;3.17;;;2.67;;
23338;SDS011;11841;49.368;20.962;2022-09-09T03:42:58;3.28;;;2.25;;
23338;SDS011;11841;49.368;20.962;2022-09-09T03:45:25;4.38;;;2.58;;
23338;SDS011;11841;49.368;20.962;2022-09-09T03:47:52;4.43;;;2.67;;
23338;SDS011;11841;49.368;20.962;2022-09-09T03:50:19;4.43;;;2.67;;
23338;SDS011;11841;49.368;20.962;2022-09-09T03:52:45;3.40;;;2.63;;
23338;SDS011;11841;49.368;20.962;2022-09-09T03:55:12;6.28;;;3.15;;
23338;SDS011;11841;49.368;20.962;2022-09-09T03:57:39;4.85;;;2.72;;
23338;SDS011;11841;49.368;20.962;2022-09-09T04:00:06;6.75;;;2.38;;
23338;SDS011;11841;49.368;20.962;2022-09-09T04:02:34;4.13;;;2.60;;
23338;SDS011;11841;49.368;20.962;2022-09-09T04:05:00;5.28;;;2.80;;
23338;SDS011;11841;49.368;20.962;2022-09-09T04:07:27;3.47;;;2.58;;
23338;SDS011;11841;49.368;20.962;2022-09-09T04:09:54;3.35;;;2.55;;
23338;SDS011;11841;49.368;20.962;2022-09-09T04:12:21;2.65;;;2.40;;
23338;SDS011;11841;49.368;20.962;2022-09-09T04:14:48;4.95;;;2.97;;
23338;SDS011;11841;49.368;20.962;2022-09-09T04:17:15;3.22;;;2.50;;
23338;SDS011;11841;49.368;20.962;2022-09-09T04:19:41;6.07;;;3.70;;
23338;SDS011;11841;49.368;20.962;2022-09-09T04:22:27;6.53;;;3.80;;
23338;SDS011;11841;49.368;20.962;2022-09-09T04:24:54;5.28;;;3.63;;
23338;SDS011;11841;49.368;20.962;2022-09-09T04:27:20;4.80;;;4.07;;
23338;SDS011;11841;49.368;20.962;2022-09-09T04:29:47;5.50;;;4.10;;
23338;SDS011;11841;49.368;20.962;2022-09-09T04:32:13;4.03;;;3.33;;
23338;SDS011;11841;49.368;20.962;2022-09-09T04:34:40;4.38;;;3.83;;
23338;SDS011;11841;49.368;20.962;2022-09-09T04:37:07;3.97;;;3.35;;
23338;SDS011;11841;49.368;20.962;2022-09-09T04:39:34;5.07;;;3.63;;
23338;SDS011;11841;49.368;20.962;2022-09-09T04:42:00;3.92;;;3.42;;
23338;SDS011;11841;49.368;20.962;2022-09-09T04:44:27;5.82;;;3.78;;
23338;SDS011;11841;49.368;20.962;2022-09-09T04:46:54;4.30;;;3.88;;
23338;SDS011;11841;49.368;20.962;2022-09-09T04:49:20;5.22;;;3.78;;
23338;SDS011;11841;49.368;20.962;2022-09-09T04:51:48;5.38;;;3.92;;
23338;SDS011;11841;49.368;20.962;2022-09-09T04:54:15;8.15;;;3.58;;
23338;SDS011;11841;49.368;20.962;2022-09-09T04:56:41;4.13;;;3.63;;
23338;SDS011;11841;49.368;20.962;2022-09-09T04:59:09;5.97;;;3.00;;
23338;SDS011;11841;49.368;20.962;2022-09-09T05:01:36;4.88;;;3.67;;
23338;SDS011;11841;49.368;20.962;2022-09-09T05:04:02;3.95;;;3.47;;
23338;SDS011;11841;49.368;20.962;2022-09-09T05:06:29;4.78;;;3.88;;
23338;SDS011;11841;49.368;20.962;2022-09-09T05:08:57;6.28;;;3.72;;
23338;SDS011;11841;49.368;20.962;2022-09-09T05:11:25;8.15;;;3.00;;
23338;SDS011;11841;49.368;20.962;2022-09-09T05:13:53;4.13;;;3.42;;
23338;SDS011;11841;49.368;20.962;2022-09-09T05:16:20;5.03;;;2.90;;
23338;SDS011;11841;49.368;20.962;2022-09-09T05:18:47;3.40;;;3.10;;
23338;SDS011;11841;49.368;20.962;2022-09-09T05:21:15;5.78;;;3.25;;
23338;SDS011;11841;49.368;20.962;2022-09-09T05:23:42;7.55;;;3.78;;
23338;SDS011;11841;49.368;20.962;2022-09-09T05:26:11;6.53;;;3.63;;
23338;SDS011;11841;49.368;20.962;2022-09-09T05:28:42;9.38;;;3.72;;
23338;SDS011;11841;49.368;20.962;2022-09-09T05:31:10;4.00;;;3.50;;
23338;SDS011;11841;49.368;20.962;2022-09-09T05:33:42;6.10;;;3.42;;
23338;SDS011;11841;49.368;20.962;2022-09-09T05:36:13;4.60;;;2.80;;
23338;SDS011;11841;49.368;20.962;2022-09-09T05:38:41;4.20;;;2.90;;
23338;SDS011;11841;49.368;20.962;2022-09-09T05:41:08;3.40;;;3.10;;
23338;SDS011;11841;49.368;20.962;2022-09-09T05:43:36;5.20;;;3.05;;
23338;SDS011;11841;49.368;20.962;2022-09-09T05:46:08;4.30;;;3.78;;
23338;SDS011;11841;49.368;20.962;2022-09-09T05:48:37;8.18;;;4.65;;
23338;SDS011;11841;49.368;20.962;2022-09-09T05:51:09;5.15;;;3.78;;
23338;SDS011;11841;49.368;20.962;2022-09-09T05:53:38;5.75;;;3.50;;
23338;SDS011;11841;49.368;20.962;2022-09-09T05:56:09;3.72;;;3.42;;
23338;SDS011;11841;49.368;20.962;2022-09-09T05:58:37;4.55;;;3.53;;
23338;SDS011;11841;49.368;20.962;2022-09-09T06:01:05;4.88;;;3.08;;
23338;SDS011;11841;49.368;20.962;2022-09-09T06:03:37;6.13;;;3.70;;
23338;SDS011;11841;49.368;20.962;2022-09-09T06:06:06;5.13;;;3.30;;
23338;SDS011;11841;49.368;20.962;2022-09-09T06:11:07;3.95;;;3.30;;
23338;SDS011;11841;49.368;20.962;2022-09-09T06:13:35;4.75;;;3.78;;
23338;SDS011;11841;49.368;20.962;2022-09-09T06:16:05;4.38;;;3.97;;
23338;SDS011;11841;49.368;20.962;2022-09-09T06:18:34;4.32;;;3.70;;
23338;SDS011;11841;49.368;20.962;2022-09-09T06:21:02;9.18;;;4.13;;
23338;SDS011;11841;49.368;20.962;2022-09-09T06:23:30;6.25;;;3.97;;
23338;SDS011;11841;49.368;20.962;2022-09-09T06:28:42;4.47;;;3.30;;
23338;SDS011;11841;49.368;20.962;2022-09-09T06:31:10;7.45;;;3.90;;
23338;SDS011;11841;49.368;20.962;2022-09-09T06:33:39;4.57;;;3.83;;
23338;SDS011;11841;49.368;20.962;2022-09-09T06:36:10;5.72;;;4.47;;
23338;SDS011;11841;49.368;20.962;2022-09-09T06:46:21;8.30;;;3.47;;
23338;SDS011;11841;49.368;20.962;2022-09-09T06:51:18;3.80;;;3.15;;
23338;SDS011;11841;49.368;20.962;2022-09-09T06:53:52;5.38;;;3.15;;
23338;SDS011;11841;49.368;20.962;2022-09-09T06:56:22;3.90;;;3.30;;
23338;SDS011;11841;49.368;20.962;2022-09-09T06:58:51;4.03;;;3.13;;
23338;SDS011;11841;49.368;20.962;2022-09-09T07:01:19;4.35;;;3.33;;
23338;SDS011;11841;49.368;20.962;2022-09-09T07:03:48;3.63;;;3.05;;
23338;SDS011;11841;49.368;20.962;2022-09-09T07:06:23;3.30;;;3.00;;
23338;SDS011;11841;49.368;20.962;2022-09-09T07:08:55;3.65;;;3.33;;
23338;SDS011;11841;49.368;20.962;2022-09-09T07:11:25;4.10;;;3.45;;
23338;SDS011;11841;49.368;20.962;2022-09-09T07:13:53;4.00;;;3.60;;
23338;SDS011;11841;49.368;20.962;2022-09-09T07:16:21;3.60;;;2.92;;
23338;SDS011;11841;49.368;20.962;2022-09-09T07:18:51;4.93;;;3.38;;
23338;SDS011;11841;49.368;20.962;2022-09-09T07:21:18;3.72;;;3.13;;
23338;SDS011;11841;49.368;20.962;2022-09-09T07:23:47;3.65;;;3.10;;
23338;SDS011;11841;49.368;20.962;2022-09-09T07:26:14;3.45;;;3.15;;
23338;SDS011;11841;49.368;20.962;2022-09-09T07:28:46;4.72;;;2.65;;
23338;SDS011;11841;49.368;20.962;2022-09-09T07:33:51;3.15;;;2.85;;
23338;SDS011;11841;49.368;20.962;2022-09-09T07:36:25;3.83;;;3.50;;
23338;SDS011;11841;49.368;20.962;2022-09-09T07:38:59;3.28;;;2.67;;
23338;SDS011;11841;49.368;20.962;2022-09-09T07:41:32;3.60;;;3.00;;
23338;SDS011;11841;49.368;20.962;2022-09-09T07:44:05;3.97;;;3.15;;
23338;SDS011;11841;49.368;20.962;2022-09-09T07:46:32;3.40;;;3.10;;
23338;SDS011;11841;49.368;20.962;2022-09-09T07:49:00;8.05;;;3.35;;
23338;SDS011;11841;49.368;20.962;2022-09-09T07:51:29;4.35;;;3.38;;
23338;SDS011;11841;49.368;20.962;2022-09-09T07:53:58;3.53;;;3.22;;
23338;SDS011;11841;49.368;20.962;2022-09-09T07:56:28;5.47;;;3.25;;
23338;SDS011;11841;49.368;20.962;2022-09-09T07:58:56;3.65;;;2.75;;
23338;SDS011;11841;49.368;20.962;2022-09-09T08:01:26;6.30;;;3.63;;
23338;SDS011;11841;49.368;20.962;2022-09-09T08:04:06;3.60;;;3.15;;
23338;SDS011;11841;49.368;20.962;2022-09-09T08:09:06;3.60;;;3.30;;
23338;SDS011;11841;49.368;20.962;2022-09-09T08:11:33;10.00;;;3.50;;
23338;SDS011;11841;49.368;20.962;2022-09-09T08:14:05;3.50;;;3.20;;
23338;SDS011;11841;49.368;20.962;2022-09-09T08:16:34;4.72;;;2.92;;
23338;SDS011;11841;49.368;20.962;2022-09-09T08:19:03;3.45;;;3.15;;
23338;SDS011;11841;49.368;20.962;2022-09-09T08:21:30;3.17;;;2.58;;
23338;SDS011;11841;49.368;20.962;2022-09-09T08:24:00;5.93;;;2.83;;
23338;SDS011;11841;49.368;20.962;2022-09-09T08:26:28;2.67;;;2.47;;
23338;SDS011;11841;49.368;20.962;2022-09-09T08:28:58;3.53;;;2.90;;
23338;SDS011;11841;49.368;20.962;2022-09-09T08:31:27;3.30;;;2.67;;
23338;SDS011;11841;49.368;20.962;2022-09-09T08:33:56;3.30;;;3.00;;
23338;SDS011;11841;49.368;20.962;2022-09-09T08:36:26;11.63;;;3.03;;
23338;SDS011;11841;49.368;20.962;2022-09-09T08:38:56;3.00;;;2.53;;
23338;SDS011;11841;49.368;20.962;2022-09-09T08:44:10;2.97;;;2.67;;
23338;SDS011;11841;49.368;20.962;2022-09-09T08:52:56;3.20;;;2.90;;
23338;SDS011;11841;49.368;20.962;2022-09-09T08:58:18;3.50;;;2.78;;
23338;SDS011;11841;49.368;20.962;2022-09-09T09:00:50;3.13;;;2.75;;
23338;SDS011;11841;49.368;20.962;2022-09-09T09:09:00;4.75;;;3.20;;
23338;SDS011;11841;49.368;20.962;2022-09-09T09:11:39;3.45;;;2.75;;
23338;SDS011;11841;49.368;20.962;2022-09-09T09:14:18;3.75;;;2.70;;
23338;SDS011;11841;49.368;20.962;2022-09-09T09:19:39;3.00;;;2.70;;
23338;SDS011;11841;49.368;20.962;2022-09-09T09:22:24;5.00;;;2.80;;
23338;SDS011;11841;49.368;20.962;2022-09-09T09:27:52;2.60;;;2.40;;
23338;SDS011;11841;49.368;20.962;2022-09-09T09:30:33;2.50;;;2.20;;
23338;SDS011;11841;49.368;20.962;2022-09-09T09:33:13;4.07;;;2.38;;
23338;SDS011;11841;49.368;20.962;2022-09-09T09:35:45;3.47;;;2.20;;
23338;SDS011;11841;49.368;20.962;2022-09-09T09:38:21;2.85;;;2.65;;
23338;SDS011;11841;49.368;20.962;2022-09-09T09:41:09;3.83;;;2.90;;
23338;SDS011;11841;49.368;20.962;2022-09-09T09:43:36;8.48;;;2.80;;
23338;SDS011;11841;49.368;20.962;2022-09-09T09:46:17;3.00;;;2.60;;
23338;SDS011;11841;49.368;20.962;2022-09-09T09:48:56;2.38;;;2.17;;
23338;SDS011;11841;49.368;20.962;2022-09-09T09:51:24;3.47;;;2.30;;
23338;SDS011;11841;49.368;20.962;2022-09-09T09:53:52;2.77;;;2.53;;
23338;SDS011;11841;49.368;20.962;2022-09-09T09:56:26;2.78;;;2.58;;
23338;SDS011;11841;49.368;20.962;2022-09-09T09:58:55;2.55;;;2.35;;
23338;SDS011;11841;49.368;20.962;2022-09-09T10:01:29;3.03;;;2.63;;
23338;SDS011;11841;49.368;20.962;2022-09-09T10:06:32;3.60;;;2.65;;
23338;SDS011;11841;49.368;20.962;2022-09-09T10:09:00;3.10;;;2.88;;
23338;SDS011;11841;49.368;20.962;2022-09-09T10:11:35;4.03;;;2.28;;
23338;SDS011;11841;49.368;20.962;2022-09-09T10:14:21;2.65;;;2.10;;
23338;SDS011;11841;49.368;20.962;2022-09-09T10:27:27;3.15;;;2.70;;
23338;SDS011;11841;49.368;20.962;2022-09-09T10:38:13;3.20;;;2.80;;
23338;SDS011;11841;49.368;20.962;2022-09-09T10:40:45;3.08;;;2.78;;
23338;SDS011;11841;49.368;20.962;2022-09-09T10:52:30;3.47;;;2.70;;
23338;SDS011;11841;49.368;20.962;2022-09-09T10:55:10;3.08;;;2.33;;
23338;SDS011;11841;49.368;20.962;2022-09-09T10:57:50;2.78;;;2.58;;
23338;SDS011;11841;49.368;20.962;2022-09-09T11:00:24;4.00;;;2.63;;
23338;SDS011;11841;49.368;20.962;2022-09-09T11:02:58;3.40;;;2.90;;
23338;SDS011;11841;49.368;20.962;2022-09-09T11:08:21;3.88;;;2.83;;
23338;SDS011;11841;49.368;20.962;2022-09-09T11:13:36;2.80;;;2.60;;
23338;SDS011;11841;49.368;20.962;2022-09-09T11:16:16;4.38;;;2.83;;
23338;SDS011;11841;49.368;20.962;2022-09-09T11:18:45;2.72;;;2.35;;
23338;SDS011;11841;49.368;20.962;2022-09-09T11:21:24;2.42;;;2.22;;
23338;SDS011;11841;49.368;20.962;2022-09-09T11:23:57;3.05;;;2.42;;
23338;SDS011;11841;49.368;20.962;2022-09-09T11:26:29;3.50;;;2.85;;
23338;SDS011;11841;49.368;20.962;2022-09-09T11:29:16;2.58;;;2.38;;
23338;SDS011;11841;49.368;20.962;2022-09-09T11:32:12;3.75;;;2.65;;
23338;SDS011;11841;49.368;20.962;2022-09-09T11:35:01;2.70;;;2.50;;
23338;SDS011;11841;49.368;20.962;2022-09-09T11:40:20;3.63;;;3.05;;
23338;SDS011;11841;49.368;20.962;2022-09-09T11:42:48;2.85;;;2.65;;
23338;SDS011;11841;49.368;20.962;2022-09-09T11:45:26;2.92;;;2.70;;
23338;SDS011;11841;49.368;20.962;2022-09-09T11:52:50;4.32;;;2.95;;
23338;SDS011;11841;49.368;20.962;2022-09-09T11:55:28;2.40;;;2.20;;
23338;SDS011;11841;49.368;20.962;2022-09-09T12:00:39;2.70;;;2.50;;
23338;SDS011;11841;49.368;20.962;2022-09-09T12:03:31;2.53;;;2.20;;
23338;SDS011;11841;49.368;20.962;2022-09-09T12:11:49;2.92;;;2.72;;
23338;SDS011;11841;49.368;20.962;2022-09-09T12:14:20;2.55;;;2.35;;
23338;SDS011;11841;49.368;20.962;2022-09-09T12:16:48;2.13;;;1.92;;
23338;SDS011;11841;49.368;20.962;2022-09-09T12:19:20;3.92;;;2.45;;
23338;SDS011;11841;49.368;20.962;2022-09-09T12:22:00;4.20;;;2.28;;
23338;SDS011;11841;49.368;20.962;2022-09-09T12:24:41;2.67;;;2.28;;
23338;SDS011;11841;49.368;20.962;2022-09-09T12:27:34;3.70;;;2.05;;
23338;SDS011;11841;49.368;20.962;2022-09-09T12:30:08;3.22;;;2.38;;
23338;SDS011;11841;49.368;20.962;2022-09-09T12:32:38;3.25;;;2.70;;
23338;SDS011;11841;49.368;20.962;2022-09-09T12:37:49;2.97;;;2.25;;
23338;SDS011;11841;49.368;20.962;2022-09-09T12:42:58;4.72;;;2.55;;
23338;SDS011;11841;49.368;20.962;2022-09-09T12:45:28;3.92;;;2.33;;
23338;SDS011;11841;49.368;20.962;2022-09-09T12:47:58;3.30;;;2.47;;
23338;SDS011;11841;49.368;20.962;2022-09-09T12:50:45;3.55;;;2.60;;
23338;SDS011;11841;49.368;20.962;2022-09-09T12:55:53;3.03;;;2.42;;
23338;SDS011;11841;49.368;20.962;2022-09-09T12:58:23;2.80;;;2.55;;
23338;SDS011;11841;49.368;20.962;2022-09-09T13:00:52;2.50;;;2.30;;
23338;SDS011;11841;49.368;20.962;2022-09-09T13:03:23;2.97;;;2.28;;
23338;SDS011;11841;49.368;20.962;2022-09-09T13:05:51;2.97;;;2.50;;
23338;SDS011;11841;49.368;20.962;2022-09-09T13:08:19;4.50;;;2.30;;
23338;SDS011;11841;49.368;20.962;2022-09-09T13:10:48;4.97;;;2.55;;
23338;SDS011;11841;49.368;20.962;2022-09-09T13:13:35;3.75;;;2.33;;
23338;SDS011;11841;49.368;20.962;2022-09-09T13:16:05;2.75;;;2.55;;
23338;SDS011;11841;49.368;20.962;2022-09-09T13:18:35;3.00;;;2.70;;
23338;SDS011;11841;49.368;20.962;2022-09-09T13:21:05;2.88;;;2.40;;
23338;SDS011;11841;49.368;20.962;2022-09-09T13:23:33;6.93;;;2.35;;
23338;SDS011;11841;49.368;20.962;2022-09-09T13:26:03;3.08;;;2.25;;
23338;SDS011;11841;49.368;20.962;2022-09-09T13:28:32;4.13;;;1.95;;
23338;SDS011;11841;49.368;20.962;2022-09-09T13:35:57;11.07;;;2.75;;
23338;SDS011;11841;49.368;20.962;2022-09-09T13:38:27;2.65;;;2.45;;
23338;SDS011;11841;49.368;20.962;2022-09-09T13:41:00;2.97;;;2.67;;
23338;SDS011;11841;49.368;20.962;2022-09-09T13:43:42;2.50;;;2.00;;
23338;SDS011;11841;49.368;20.962;2022-09-09T13:51:36;2.15;;;1.95;;
23338;SDS011;11841;49.368;20.962;2022-09-09T13:54:05;7.20;;;2.40;;
23338;SDS011;11841;49.368;20.962;2022-09-09T13:56:34;3.25;;;2.50;;
23338;SDS011;11841;49.368;20.962;2022-09-09T13:59:02;2.88;;;2.38;;
23338;SDS011;11841;49.368;20.962;2022-09-09T14:01:30;3.38;;;2.25;;
23338;SDS011;11841;49.368;20.962;2022-09-09T14:03:57;5.68;;;2.40;;
23338;SDS011;11841;49.368;20.962;2022-09-09T14:06:25;2.00;;;1.90;;
23338;SDS011;11841;49.368;20.962;2022-09-09T14:08:51;4.20;;;2.10;;
23338;SDS011;11841;49.368;20.962;2022-09-09T14:11:18;2.70;;;2.10;;
23338;SDS011;11841;49.368;20.962;2022-09-09T14:13:45;3.03;;;2.13;;
23338;SDS011;11841;49.368;20.962;2022-09-09T14:16:11;5.47;;;2.38;;
23338;SDS011;11841;49.368;20.962;2022-09-09T14:18:38;2.75;;;2.13;;
23338;SDS011;11841;49.368;20.962;2022-09-09T14:21:05;2.70;;;2.10;;
23338;SDS011;11841;49.368;20.962;2022-09-09T14:23:31;2.67;;;2.35;;
23338;SDS011;11841;49.368;20.962;2022-09-09T14:25:58;2.72;;;2.13;;
23338;SDS011;11841;49.368;20.962;2022-09-09T14:28:25;3.83;;;2.25;;
23338;SDS011;11841;49.368;20.962;2022-09-09T14:31:11;2.50;;;2.28;;
23338;SDS011;11841;49.368;20.962;2022-09-09T14:33:40;5.97;;;2.60;;
23338;SDS011;11841;49.368;20.962;2022-09-09T14:36:06;2.67;;;2.47;;
23338;SDS011;11841;49.368;20.962;2022-09-09T14:38:34;3.10;;;2.70;;
23338;SDS011;11841;49.368;20.962;2022-09-09T14:41:06;4.03;;;3.03;;
23338;SDS011;11841;49.368;20.962;2022-09-09T14:43:33;6.13;;;3.40;;
23338;SDS011;11841;49.368;20.962;2022-09-09T14:46:06;76.90;;;30.33;;
23338;SDS011;11841;49.368;20.962;2022-09-09T14:48:34;72.65;;;25.15;;
23338;SDS011;11841;49.368;20.962;2022-09-09T14:51:05;67.20;;;24.02;;
23338;SDS011;11841;49.368;20.962;2022-09-09T14:53:35;36.42;;;15.30;;
23338;SDS011;11841;49.368;20.962;2022-09-09T14:56:13;13.38;;;5.65;;
23338;SDS011;11841;49.368;20.962;2022-09-09T14:58:41;18.02;;;9.73;;
23338;SDS011;11841;49.368;20.962;2022-09-09T15:01:13;4.05;;;2.80;;
23338;SDS011;11841;49.368;20.962;2022-09-09T15:03:48;4.50;;;3.00;;
23338;SDS011;11841;49.368;20.962;2022-09-09T15:06:16;4.10;;;3.47;;
23338;SDS011;11841;49.368;20.962;2022-09-09T15:08:44;3.38;;;2.90;;
23338;SDS011;11841;49.368;20.962;2022-09-09T15:11:11;7.55;;;2.70;;
23338;SDS011;11841;49.368;20.962;2022-09-09T15:13:40;2.53;;;2.25;;
23338;SDS011;11841;49.368;20.962;2022-09-09T15:18:35;3.45;;;2.38;;
23338;SDS011;11841;49.368;20.962;2022-09-09T15:21:09;3.00;;;2.50;;
23338;SDS011;11841;49.368;20.962;2022-09-09T15:23:43;2.60;;;2.30;;
23338;SDS011;11841;49.368;20.962;2022-09-09T15:26:09;3.00;;;2.70;;
23338;SDS011;11841;49.368;20.962;2022-09-09T15:28:37;3.67;;;2.45;;
23338;SDS011;11841;49.368;20.962;2022-09-09T15:31:09;2.47;;;2.28;;
23338;SDS011;11841;49.368;20.962;2022-09-09T15:33:38;3.60;;;2.30;;
23338;SDS011;11841;49.368;20.962;2022-09-09T15:36:15;3.50;;;2.83;;
23338;SDS011;11841;49.368;20.962;2022-09-09T15:38:43;3.13;;;2.53;;
23338;SDS011;11841;49.368;20.962;2022-09-09T15:41:10;7.40;;;3.08;;
23338;SDS011;11841;49.368;20.962;2022-09-09T15:43:37;2.53;;;2.33;;
23338;SDS011;11841;49.368;20.962;2022-09-09T15:46:14;4.30;;;2.45;;
23338;SDS011;11841;49.368;20.962;2022-09-09T15:49:08;9.70;;;2.60;;
23338;SDS011;11841;49.368;20.962;2022-09-09T15:51:44;3.28;;;2.42;;
23338;SDS011;11841;49.368;20.962;2022-09-09T15:54:13;5.55;;;2.28;;
23338;SDS011;11841;49.368;20.962;2022-09-09T15:56:43;3.28;;;2.58;;
23338;SDS011;11841;49.368;20.962;2022-09-09T15:59:10;9.85;;;2.88;;
23338;SDS011;11841;49.368;20.962;2022-09-09T16:01:38;3.47;;;2.83;;
23338;SDS011;11841;49.368;20.962;2022-09-09T16:04:05;3.78;;;2.50;;
23338;SDS011;11841;49.368;20.962;2022-09-09T16:06:32;3.17;;;2.53;;
23338;SDS011;11841;49.368;20.962;2022-09-09T16:08:59;3.03;;;2.38;;
23338;SDS011;11841;49.368;20.962;2022-09-09T16:11:30;2.75;;;2.03;;
23338;SDS011;11841;49.368;20.962;2022-09-09T16:13:59;3.42;;;2.50;;
23338;SDS011;11841;49.368;20.962;2022-09-09T16:16:28;4.95;;;1.83;;
23338;SDS011;11841;49.368;20.962;2022-09-09T16:18:59;4.32;;;2.63;;
23338;SDS011;11841;49.368;20.962;2022-09-09T16:21:32;2.30;;;2.10;;
23338;SDS011;11841;49.368;20.962;2022-09-09T16:24:01;2.70;;;2.50;;
23338;SDS011;11841;49.368;20.962;2022-09-09T16:26:31;7.75;;;4.45;;
23338;SDS011;11841;49.368;20.962;2022-09-09T16:29:00;4.90;;;3.25;;
23338;SDS011;11841;49.368;20.962;2022-09-09T16:31:28;7.47;;;3.42;;
23338;SDS011;11841;49.368;20.962;2022-09-09T16:33:55;6.13;;;4.17;;
23338;SDS011;11841;49.368;20.962;2022-09-09T16:36:23;7.57;;;4.28;;
23338;SDS011;11841;49.368;20.962;2022-09-09T16:38:54;9.13;;;4.47;;
23338;SDS011;11841;49.368;20.962;2022-09-09T16:41:24;6.18;;;4.03;;
23338;SDS011;11841;49.368;20.962;2022-09-09T16:43:58;3.53;;;3.20;;
23338;SDS011;11841;49.368;20.962;2022-09-09T16:46:29;3.78;;;2.60;;
23338;SDS011;11841;49.368;20.962;2022-09-09T16:48:57;2.50;;;2.30;;
23338;SDS011;11841;49.368;20.962;2022-09-09T16:51:27;5.68;;;2.50;;
23338;SDS011;11841;49.368;20.962;2022-09-09T16:53:57;2.60;;;2.40;;
23338;SDS011;11841;49.368;20.962;2022-09-09T16:56:26;6.43;;;3.45;;
23338;SDS011;11841;49.368;20.962;2022-09-09T16:58:54;5.03;;;3.17;;
23338;SDS011;11841;49.368;20.962;2022-09-09T17:01:23;2.47;;;2.28;;
23338;SDS011;11841;49.368;20.962;2022-09-09T17:03:53;3.10;;;2.42;;
23338;SDS011;11841;49.368;20.962;2022-09-09T17:06:26;3.80;;;2.88;;
23338;SDS011;11841;49.368;20.962;2022-09-09T17:08:57;2.38;;;2.15;;
23338;SDS011;11841;49.368;20.962;2022-09-09T17:11:26;7.55;;;4.22;;
23338;SDS011;11841;49.368;20.962;2022-09-09T17:13:53;9.60;;;3.33;;
23338;SDS011;11841;49.368;20.962;2022-09-09T17:16:21;6.82;;;2.70;;
23338;SDS011;11841;49.368;20.962;2022-09-09T17:21:18;11.77;;;7.13;;
23338;SDS011;11841;49.368;20.962;2022-09-09T17:26:15;3.00;;;2.53;;
23338;SDS011;11841;49.368;20.962;2022-09-09T17:28:43;7.53;;;2.92;;
23338;SDS011;11841;49.368;20.962;2022-09-09T17:31:12;3.65;;;2.90;;
23338;SDS011;11841;49.368;20.962;2022-09-09T17:33:44;4.13;;;2.75;;